Aérodrome :
LOGIN :

S'inscrire | Disclaimer

   EN    FR    IT 

 










Légende :    VFR   VFR Marginal   IFR   IFR Intensif   IFR Très Intensif
Visi : 
Plafond : 
>= 8 km
>= 3000ft
5 à 8 km
1000 à 3000 ft
1500m à 5 km
500 à 1000 ft
800 à 1500m
200 à 500 ft
< 800m
< 200 ft
Symboles :   Orages  Brouillard  Fortes neiges  Fortes précipitations  Vent > 20 kt
SIGMETs :   Divers  Orages  Givrage  Turbulence  Onde Orograph.  Cendres Volcan.






- Altitude de l'aérodrome : 156 ft
- Code IATA : LCC


LIBN - Lecce Galatine (military)

DERNIER METAR :
  • 171555Z 26005KT CAVOK 13/08 Q1024 RMK SCT SCT200 VIS MIN 9999 WIND THR14 25006KT WIND THR32 25005KT BLU

METARs EXPIRÉS :
  • 171455Z 26006KT CAVOK 15/09 Q1024 RMK SKC VIS MIN 9999 WIND THR14 25006KT WIND THR32 25007KT BLU
  • 171355Z 26007KT CAVOK 16/09 Q1024 RMK SKC VIS MIN 9999 WIND THR14 27006KT WIND THR32 27007KT BLU

TAF TAF LIBN
Valide du 17 à 15h jusqu'au 18 à 00h UTC


171400Z 1715/1724 25007KT CAVOK



MET'MAP, la Météo Aéronautique d'un coup d'oeil ! - Copyright ORBIFLY Décembre 2007 - Disclaimer

ORBIFLY MET'MAP TEAM :

Programmation & Développement : Alexandra Zaïnal
Sur une idée originale de : Baudouin d'Aumeries
Assistance à la programmation : Marc-Olivier Méhu
Soutien technique & logistique : Manuel Goepfert

Contact : metmap@orbifly.com




SOURCES & CREDITS :

   NOAA